createdAt,value
2023-04-17T00:00:40.922Z,13.50
2023-04-17T00:01:40.898Z,13.60
2023-04-17T00:02:41.085Z,13.50
2023-04-17T00:03:41.140Z,13.60
2023-04-17T00:04:41.040Z,13.00
2023-04-17T00:05:40.855Z,14.20
2023-04-17T00:06:40.845Z,14.30
2023-04-17T00:07:40.828Z,13.50
2023-04-17T00:08:40.828Z,14.10
2023-04-17T00:09:40.810Z,14.60
2023-04-17T00:10:40.810Z,14.30
2023-04-17T00:11:40.797Z,14.80
2023-04-17T00:12:40.779Z,14.20
2023-04-17T00:13:40.763Z,14.20
2023-04-17T00:14:40.764Z,14.60
2023-04-17T00:15:40.743Z,14.10
2023-04-17T00:16:40.819Z,14.40
2023-04-17T00:17:40.752Z,14.30
2023-04-17T00:18:40.781Z,15.00
2023-04-17T00:19:40.707Z,14.50
2023-04-17T00:20:40.688Z,15.40
2023-04-17T00:21:40.689Z,15.00
2023-04-17T00:22:40.668Z,14.00
2023-04-17T00:23:40.657Z,14.30
2023-04-17T00:24:40.646Z,14.30
2023-04-17T00:25:40.628Z,15.30
2023-04-17T00:26:40.633Z,14.60
2023-04-17T00:27:40.636Z,14.70
2023-04-17T00:28:40.604Z,14.60
2023-04-17T00:29:40.596Z,14.00
2023-04-17T00:30:40.579Z,15.20
2023-04-17T00:31:40.636Z,15.60
2023-04-17T00:32:40.633Z,15.50
2023-04-17T00:33:40.542Z,14.90
2023-04-17T00:34:40.566Z,15.00
2023-04-17T00:35:40.525Z,15.30
2023-04-17T00:36:40.529Z,15.70
2023-04-17T00:37:40.507Z,15.40
2023-04-17T00:38:40.504Z,14.90
2023-04-17T00:39:40.477Z,15.30
2023-04-17T00:40:40.467Z,16.20
2023-04-17T00:41:40.473Z,16.10
2023-04-17T00:42:47.449Z,15.50
2023-04-17T00:43:40.448Z,15.80
2023-04-17T00:44:40.427Z,16.50
2023-04-17T00:45:40.452Z,16.30
2023-04-17T00:46:40.412Z,16.80
2023-04-17T00:47:40.407Z,16.20
2023-04-17T00:48:40.388Z,16.20
2023-04-17T00:49:40.368Z,16.50
2023-04-17T00:50:40.370Z,16.80
2023-04-17T00:51:40.345Z,16.80
2023-04-17T00:52:40.327Z,16.70
2023-04-17T00:53:40.336Z,16.60
2023-04-17T00:54:40.307Z,17.10
2023-04-17T00:55:40.303Z,16.00
2023-04-17T00:56:40.288Z,17.20
2023-04-17T00:57:40.279Z,16.30
2023-04-17T00:58:40.297Z,16.80
2023-04-17T00:59:40.257Z,16.70
2023-04-17T01:00:40.242Z,16.60
2023-04-17T01:01:40.359Z,16.30
2023-04-17T01:02:40.383Z,16.60
2023-04-17T01:03:40.429Z,16.50
2023-04-17T01:04:40.196Z,16.80
2023-04-17T01:05:40.190Z,17.10
2023-04-17T01:06:40.194Z,16.40
2023-04-17T01:07:40.180Z,17.20
2023-04-17T01:08:40.167Z,17.20
2023-04-17T01:09:40.143Z,16.70
2023-04-17T01:10:40.177Z,16.30
2023-04-17T01:11:40.118Z,17.50
2023-04-17T01:12:40.108Z,16.30
2023-04-17T01:13:40.110Z,16.40
2023-04-17T01:14:40.081Z,16.60
2023-04-17T01:15:40.084Z,16.00
2023-04-17T01:16:40.153Z,16.70
2023-04-17T01:17:40.102Z,16.20
2023-04-17T01:18:40.044Z,16.90
2023-04-17T01:19:40.057Z,16.60
2023-04-17T01:20:40.020Z,17.20
2023-04-17T01:21:40.012Z,17.10
2023-04-17T01:22:40.033Z,17.40
2023-04-17T01:23:39.998Z,17.70
2023-04-17T01:24:39.980Z,18.00
2023-04-17T01:25:39.960Z,17.50
2023-04-17T01:26:39.945Z,17.10
2023-04-17T01:27:39.965Z,18.40
2023-04-17T01:28:39.950Z,17.50
2023-04-17T01:29:39.939Z,17.10
2023-04-17T01:30:39.925Z,17.60
2023-04-17T01:31:39.922Z,17.90
2023-04-17T01:32:39.911Z,18.00
2023-04-17T01:33:39.885Z,17.90
2023-04-17T01:34:39.857Z,18.00
2023-04-17T01:35:39.861Z,18.50
2023-04-17T01:36:39.838Z,17.90
2023-04-17T01:37:39.827Z,18.20
2023-04-17T01:38:39.834Z,17.50
2023-04-17T01:39:39.827Z,17.90
2023-04-17T01:40:39.794Z,18.60
2023-04-17T01:41:39.802Z,18.20
2023-04-17T01:42:39.798Z,18.30
2023-04-17T01:43:39.767Z,18.40
2023-04-17T01:44:39.746Z,18.80
2023-04-17T01:45:39.756Z,18.10
2023-04-17T01:46:39.821Z,18.80
2023-04-17T01:47:39.743Z,18.00
2023-04-17T01:48:39.712Z,18.70
2023-04-17T01:49:39.701Z,17.50
2023-04-17T01:50:39.689Z,18.30
2023-04-17T01:51:39.700Z,18.00
2023-04-17T01:52:39.663Z,18.50
2023-04-17T01:53:39.664Z,17.60
2023-04-17T01:54:39.660Z,18.50
2023-04-17T01:55:39.645Z,17.90
2023-04-17T01:56:39.616Z,18.90
2023-04-17T01:57:39.630Z,18.90
2023-04-17T01:58:39.599Z,18.60
2023-04-17T01:59:39.582Z,19.00
2023-04-17T02:00:39.586Z,18.10
2023-04-17T02:01:39.591Z,17.90
2023-04-17T02:02:39.668Z,18.30
2023-04-17T02:03:39.715Z,18.60
2023-04-17T02:04:39.613Z,18.00
2023-04-17T02:05:39.534Z,17.10
2023-04-17T02:06:39.516Z,18.00
2023-04-17T02:07:39.538Z,18.10
2023-04-17T02:08:39.502Z,18.00
2023-04-17T02:09:39.478Z,17.60
2023-04-17T02:10:39.500Z,19.20
2023-04-17T02:11:39.455Z,18.10
2023-04-17T02:12:39.471Z,18.10
2023-04-17T02:13:39.441Z,18.10
2023-04-17T02:14:39.420Z,18.10
2023-04-17T02:15:39.442Z,18.30
2023-04-17T02:16:39.406Z,18.10
2023-04-17T02:17:39.448Z,18.60
2023-04-17T02:18:39.388Z,17.50
2023-04-17T02:19:39.369Z,17.80
2023-04-17T02:20:39.370Z,17.80
2023-04-17T02:21:39.356Z,18.70
2023-04-17T02:22:39.332Z,18.10
2023-04-17T02:23:39.327Z,18.40
2023-04-17T02:24:39.322Z,18.30
2023-04-17T02:25:39.299Z,18.60
2023-04-17T02:26:39.306Z,18.30
2023-04-17T02:27:39.279Z,18.20
2023-04-17T02:28:39.264Z,18.20
2023-04-17T02:29:39.270Z,17.00
2023-04-17T02:30:39.241Z,19.00
2023-04-17T02:31:39.255Z,18.80
2023-04-17T02:32:39.245Z,17.80
2023-04-17T02:33:39.213Z,17.40
2023-04-17T02:34:39.203Z,18.60
2023-04-17T02:35:39.188Z,18.40
2023-04-17T02:36:39.183Z,17.80
2023-04-17T02:37:39.168Z,18.30
2023-04-17T02:38:39.166Z,18.60
2023-04-17T02:39:39.329Z,18.10
2023-04-17T02:40:39.137Z,18.40
2023-04-17T02:41:39.128Z,17.10
2023-04-17T02:42:39.131Z,18.10
2023-04-17T02:43:46.632Z,19.10
2023-04-17T02:44:39.112Z,18.60
2023-04-17T02:45:39.081Z,18.00
2023-04-17T02:46:39.131Z,17.90
2023-04-17T02:47:39.115Z,17.80
2023-04-17T02:48:39.046Z,18.00
2023-04-17T02:49:39.065Z,17.50
2023-04-17T02:50:39.045Z,17.90
2023-04-17T02:51:39.018Z,17.80
2023-04-17T02:52:39.006Z,18.00
2023-04-17T02:53:38.995Z,18.10
2023-04-17T02:54:38.979Z,18.30
2023-04-17T02:55:38.984Z,19.00
2023-04-17T02:56:38.971Z,18.40
2023-04-17T02:57:38.953Z,18.30
2023-04-17T02:58:38.961Z,17.50
2023-04-17T02:59:38.950Z,18.40
2023-04-17T03:00:38.952Z,17.40
2023-04-17T03:01:38.939Z,18.10
2023-04-17T03:02:38.982Z,18.10
2023-04-17T03:03:39.106Z,17.80
2023-04-17T03:04:38.932Z,17.60
2023-04-17T03:05:38.868Z,17.90
2023-04-17T03:06:38.860Z,18.30
2023-04-17T03:07:38.850Z,18.10
2023-04-17T03:08:39.051Z,18.00
2023-04-17T03:09:38.853Z,18.40
2023-04-17T03:10:38.821Z,17.90
2023-04-17T03:11:38.815Z,18.60
2023-04-17T03:12:38.782Z,17.80
2023-04-17T03:13:38.793Z,18.10
2023-04-17T03:14:38.899Z,17.70
2023-04-17T03:15:38.767Z,17.80
2023-04-17T03:16:38.761Z,19.10
2023-04-17T03:17:38.858Z,18.80
2023-04-17T03:18:38.719Z,17.60
2023-04-17T03:19:38.709Z,18.10
2023-04-17T03:20:38.699Z,17.90
2023-04-17T03:21:38.698Z,17.90
2023-04-17T03:22:38.674Z,18.00
2023-04-17T03:23:38.673Z,18.80
2023-04-17T03:24:38.650Z,17.30
2023-04-17T03:25:38.660Z,17.40
2023-04-17T03:26:38.641Z,18.00
2023-04-17T03:27:38.714Z,17.90
2023-04-17T03:28:38.603Z,18.00
2023-04-17T03:29:38.604Z,17.40
2023-04-17T03:30:38.651Z,17.30
2023-04-17T03:31:38.655Z,17.80
2023-04-17T03:32:38.630Z,18.30
2023-04-17T03:33:38.555Z,17.10
2023-04-17T03:34:38.537Z,16.80
2023-04-17T03:35:38.542Z,16.80
2023-04-17T03:36:38.532Z,17.50
2023-04-17T03:37:38.525Z,17.70
2023-04-17T03:38:38.534Z,17.80
2023-04-17T03:39:38.509Z,17.60
2023-04-17T03:40:38.495Z,17.50
2023-04-17T03:41:38.471Z,17.60
2023-04-17T03:42:38.475Z,16.60
2023-04-17T03:43:38.459Z,18.50
2023-04-17T03:44:38.456Z,17.20
2023-04-17T03:45:38.451Z,17.50
2023-04-17T03:46:38.457Z,17.90
2023-04-17T03:47:38.458Z,18.30
2023-04-17T03:48:38.407Z,17.20
2023-04-17T03:49:38.390Z,17.10
2023-04-17T03:50:38.366Z,17.90
2023-04-17T03:51:38.380Z,17.20
2023-04-17T03:52:38.351Z,17.60
2023-04-17T03:53:38.350Z,17.90
2023-04-17T03:54:38.336Z,17.60
2023-04-17T03:55:38.324Z,17.70
2023-04-17T03:56:38.317Z,17.90
2023-04-17T03:57:38.301Z,17.60
2023-04-17T03:58:38.293Z,17.30
2023-04-17T03:59:38.270Z,17.80
2023-04-17T04:00:38.258Z,17.10
2023-04-17T04:01:38.245Z,17.50
2023-04-17T04:02:38.367Z,16.80
2023-04-17T04:03:38.368Z,17.40
2023-04-17T04:04:38.333Z,17.50
2023-04-17T04:05:38.213Z,17.30
2023-04-17T04:06:38.197Z,16.90
2023-04-17T04:07:38.180Z,16.70
2023-04-17T04:08:38.839Z,16.70
2023-04-17T04:09:38.155Z,17.40
2023-04-17T04:10:38.144Z,17.30
2023-04-17T04:11:38.142Z,16.50
2023-04-17T04:12:38.129Z,16.90
2023-04-17T04:13:38.108Z,16.50
2023-04-17T04:14:39.815Z,17.40
2023-04-17T04:15:38.131Z,17.00
2023-04-17T04:16:38.080Z,16.90
2023-04-17T04:17:38.102Z,17.90
2023-04-17T04:18:38.077Z,17.40
2023-04-17T04:19:38.046Z,17.30
2023-04-17T04:20:38.028Z,16.90
2023-04-17T04:21:38.020Z,17.10
2023-04-17T04:22:38.019Z,17.20
2023-04-17T04:23:38.000Z,17.60
2023-04-17T04:24:37.990Z,17.00
2023-04-17T04:25:37.979Z,16.70
2023-04-17T04:26:38.093Z,17.30
2023-04-17T04:27:37.951Z,17.30
2023-04-17T04:28:37.957Z,18.40
2023-04-17T04:29:37.955Z,17.30
2023-04-17T04:30:37.920Z,17.00
2023-04-17T04:31:38.032Z,17.00
2023-04-17T04:32:37.954Z,18.20
2023-04-17T04:33:37.956Z,17.50
2023-04-17T04:34:37.903Z,17.30
2023-04-17T04:35:38.550Z,17.50
2023-04-17T04:36:37.866Z,17.80
2023-04-17T04:37:37.848Z,16.70
2023-04-17T04:38:37.860Z,17.70
2023-04-17T04:39:37.861Z,17.50
2023-04-17T04:40:37.907Z,17.50
2023-04-17T04:41:37.820Z,17.10
2023-04-17T04:42:37.788Z,17.70
2023-04-17T04:43:37.781Z,17.80
2023-04-17T04:44:45.268Z,17.10
2023-04-17T04:45:37.767Z,17.40
2023-04-17T04:46:37.824Z,17.30
2023-04-17T04:47:37.832Z,17.40
2023-04-17T04:48:39.304Z,17.60
2023-04-17T04:49:37.715Z,17.70
2023-04-17T04:50:37.834Z,17.20
2023-04-17T04:51:37.698Z,17.10
2023-04-17T04:52:37.694Z,17.10
2023-04-17T04:53:37.672Z,17.40
2023-04-17T04:54:37.660Z,17.60
2023-04-17T04:55:37.648Z,16.50
2023-04-17T04:56:37.654Z,16.70
2023-04-17T04:57:37.648Z,17.10
2023-04-17T04:58:37.619Z,17.30
2023-04-17T04:59:38.951Z,17.60
2023-04-17T05:00:37.620Z,17.30
2023-04-17T05:01:37.607Z,17.30
2023-04-17T05:02:37.728Z,17.30
2023-04-17T05:03:37.826Z,17.30
2023-04-17T05:04:37.637Z,17.10
2023-04-17T05:05:37.555Z,16.50
2023-04-17T05:06:37.564Z,16.90
2023-04-17T05:07:37.515Z,17.90
2023-04-17T05:08:37.509Z,17.60
2023-04-17T05:09:37.505Z,16.80
2023-04-17T05:10:37.493Z,17.20
2023-04-17T05:11:37.475Z,17.10
2023-04-17T05:12:37.487Z,16.50
2023-04-17T05:13:37.467Z,17.30
2023-04-17T05:14:37.449Z,17.40
2023-04-17T05:15:37.431Z,16.60
2023-04-17T05:16:37.471Z,16.70
2023-04-17T05:17:37.449Z,16.70
2023-04-17T05:18:37.406Z,16.20
2023-04-17T05:19:37.399Z,17.50
2023-04-17T05:20:37.378Z,17.00
2023-04-17T05:21:37.376Z,17.10
2023-04-17T05:22:37.376Z,16.30
2023-04-17T05:23:37.347Z,16.40
2023-04-17T05:24:37.336Z,16.60
2023-04-17T05:25:37.325Z,17.50
2023-04-17T05:26:37.346Z,16.60
2023-04-17T05:27:37.296Z,16.40
2023-04-17T05:28:37.290Z,16.50
2023-04-17T05:29:37.283Z,15.20
2023-04-17T05:30:37.278Z,16.60
2023-04-17T05:31:37.402Z,15.80
2023-04-17T05:32:37.331Z,15.40
2023-04-17T05:33:37.230Z,15.70
2023-04-17T05:34:37.240Z,15.50
2023-04-17T05:35:37.210Z,15.60
2023-04-17T05:36:37.215Z,15.90
2023-04-17T05:37:37.389Z,15.80
2023-04-17T05:38:37.202Z,15.80
2023-04-17T05:39:37.178Z,15.40
2023-04-17T05:40:37.353Z,15.40
2023-04-17T05:41:37.142Z,16.50
2023-04-17T05:42:37.157Z,15.60
2023-04-17T05:43:37.120Z,15.70
2023-04-17T05:44:37.117Z,14.90
2023-04-17T05:45:37.240Z,16.10
2023-04-17T05:46:37.100Z,15.50
2023-04-17T05:47:37.460Z,15.60
2023-04-17T05:48:37.069Z,15.20
2023-04-17T05:49:37.088Z,15.30
2023-04-17T05:50:37.048Z,14.90
2023-04-17T05:51:37.052Z,15.10
2023-04-17T05:52:39.677Z,15.40
2023-04-17T05:53:37.020Z,15.20
2023-04-17T05:54:37.031Z,15.20
2023-04-17T05:55:37.002Z,15.10
2023-04-17T05:56:38.993Z,15.10
2023-04-17T05:57:36.968Z,15.60
2023-04-17T05:58:36.963Z,15.80
2023-04-17T05:59:36.953Z,15.40
2023-04-17T06:00:37.684Z,15.10
2023-04-17T06:01:37.539Z,14.90
2023-04-17T06:02:37.028Z,14.50
2023-04-17T06:03:37.093Z,14.60
2023-04-17T06:04:37.104Z,14.50
2023-04-17T06:05:37.998Z,15.30
2023-04-17T06:06:36.905Z,14.30
2023-04-17T06:07:36.860Z,14.80
2023-04-17T06:08:36.867Z,14.60
2023-04-17T06:09:36.845Z,14.60
2023-04-17T06:10:36.851Z,15.10
2023-04-17T06:11:36.823Z,14.90
2023-04-17T06:12:36.831Z,14.60
2023-04-17T06:13:36.800Z,15.10
2023-04-17T06:14:36.800Z,15.20
2023-04-17T06:15:36.786Z,14.90
2023-04-17T06:16:36.844Z,14.30
2023-04-17T06:17:36.788Z,14.00
2023-04-17T06:18:36.761Z,15.30
2023-04-17T06:19:36.730Z,15.20
2023-04-17T06:20:38.638Z,14.50
2023-04-17T06:21:36.716Z,14.10
2023-04-17T06:22:36.698Z,13.90
2023-04-17T06:23:36.715Z,13.70
2023-04-17T06:24:36.693Z,15.00
2023-04-17T06:25:36.660Z,13.90
2023-04-17T06:26:36.671Z,13.90
2023-04-17T06:27:37.318Z,13.00
2023-04-17T06:28:36.678Z,13.50
2023-04-17T06:29:36.636Z,13.70
2023-04-17T06:30:36.719Z,14.60
2023-04-17T06:31:36.680Z,13.60
2023-04-17T06:32:36.632Z,14.50
2023-04-17T06:33:36.572Z,13.90
2023-04-17T06:34:41.385Z,13.90
2023-04-17T06:35:36.570Z,14.00
2023-04-17T06:36:36.572Z,13.90
2023-04-17T06:37:36.576Z,14.00
2023-04-17T06:38:36.546Z,13.90
2023-04-17T06:39:36.521Z,13.10
2023-04-17T06:40:36.516Z,13.60
2023-04-17T06:41:36.489Z,13.10
2023-04-17T06:42:36.572Z,12.60
2023-04-17T06:43:36.605Z,12.90
2023-04-17T06:44:36.515Z,13.30
2023-04-17T06:45:44.299Z,13.00
2023-04-17T06:46:36.490Z,13.40
2023-04-17T06:47:36.472Z,11.60
2023-04-17T06:48:36.425Z,13.20
2023-04-17T06:49:36.417Z,13.40
2023-04-17T06:50:36.395Z,12.50
2023-04-17T06:51:36.376Z,12.60
2023-04-17T06:52:36.387Z,12.10
2023-04-17T06:53:36.387Z,13.00
2023-04-17T06:54:36.357Z,12.30
2023-04-17T06:55:36.496Z,12.50
2023-04-17T06:56:36.348Z,11.90
2023-04-17T06:57:36.361Z,12.00
2023-04-17T06:58:36.536Z,11.90
2023-04-17T06:59:36.290Z,11.80
2023-04-17T07:00:36.283Z,12.60
2023-04-17T07:01:36.304Z,11.40
2023-04-17T07:02:36.375Z,11.20
2023-04-17T07:03:36.401Z,11.70
2023-04-17T07:04:36.309Z,11.30
2023-04-17T07:05:36.275Z,10.80
2023-04-17T07:06:36.213Z,11.10
2023-04-17T07:07:36.247Z,11.20
2023-04-17T07:08:36.205Z,11.00
2023-04-17T07:09:36.179Z,11.60
2023-04-17T07:10:36.162Z,10.50
2023-04-17T07:11:36.216Z,11.00
2023-04-17T07:12:36.186Z,9.90
2023-04-17T07:13:36.175Z,10.90
2023-04-17T07:14:36.150Z,10.50
2023-04-17T07:15:36.198Z,11.20
2023-04-17T07:16:36.176Z,9.80
2023-04-17T07:17:36.170Z,11.60
2023-04-17T07:18:36.079Z,10.10
2023-04-17T07:19:36.096Z,10.70
2023-04-17T07:20:36.057Z,10.60
2023-04-17T07:21:36.049Z,10.70
2023-04-17T07:22:36.051Z,10.60
2023-04-17T07:23:36.016Z,9.90
2023-04-17T07:24:36.014Z,9.90
2023-04-17T07:25:36.021Z,10.30
2023-04-17T07:26:36.015Z,10.30
2023-04-17T07:27:35.985Z,10.70
2023-04-17T07:28:35.967Z,9.80
2023-04-17T07:29:35.969Z,10.70
2023-04-17T07:30:36.112Z,9.20
2023-04-17T07:31:35.968Z,9.60
2023-04-17T07:32:35.964Z,10.50
2023-04-17T07:33:38.130Z,9.90
2023-04-17T07:34:36.040Z,9.70
2023-04-17T07:35:35.885Z,10.20
2023-04-17T07:36:35.951Z,9.90
2023-04-17T07:37:35.912Z,9.90
2023-04-17T07:38:36.572Z,9.60
2023-04-17T07:39:35.870Z,10.00
2023-04-17T07:40:35.855Z,9.70
2023-04-17T07:41:35.874Z,9.50
2023-04-17T07:42:35.810Z,9.00
2023-04-17T07:43:35.808Z,9.80
2023-04-17T07:44:35.805Z,9.60
2023-04-17T07:45:35.794Z,9.50
2023-04-17T07:46:35.856Z,9.10
2023-04-17T07:47:37.066Z,10.00
2023-04-17T07:48:35.766Z,8.90
2023-04-17T07:49:35.749Z,9.90
2023-04-17T07:50:35.724Z,9.00
2023-04-17T07:51:35.713Z,9.50
2023-04-17T07:52:35.713Z,9.20
2023-04-17T07:53:35.680Z,9.40
2023-04-17T07:54:35.698Z,9.60
2023-04-17T07:55:35.662Z,8.80
2023-04-17T07:56:35.716Z,9.20
2023-04-17T07:57:35.646Z,8.60
2023-04-17T07:58:35.682Z,9.20
2023-04-17T07:59:35.612Z,8.70
2023-04-17T08:00:35.616Z,9.30
2023-04-17T08:01:35.608Z,8.90
2023-04-17T08:02:35.796Z,8.70
2023-04-17T08:03:35.832Z,8.60
2023-04-17T08:04:35.644Z,8.70
2023-04-17T08:05:35.562Z,8.50
2023-04-17T08:06:35.553Z,8.60
2023-04-17T08:07:35.530Z,9.10
2023-04-17T08:08:35.516Z,8.80
2023-04-17T08:09:35.584Z,9.10
2023-04-17T08:10:35.495Z,8.30
2023-04-17T08:11:40.147Z,8.50
2023-04-17T08:12:35.566Z,8.40
2023-04-17T08:13:35.482Z,9.00
2023-04-17T08:14:35.446Z,8.70
2023-04-17T08:15:36.490Z,8.50
2023-04-17T08:16:35.478Z,8.40
2023-04-17T08:17:35.524Z,8.70
2023-04-17T08:18:35.441Z,8.70
2023-04-17T08:19:35.405Z,8.80
2023-04-17T08:20:35.383Z,7.90
2023-04-17T08:21:35.365Z,8.60
2023-04-17T08:22:35.376Z,9.00
2023-04-17T08:23:35.357Z,8.30
2023-04-17T08:24:35.362Z,8.80
2023-04-17T08:25:35.370Z,8.30
2023-04-17T08:26:35.343Z,8.50
2023-04-17T08:27:35.311Z,8.80
2023-04-17T08:28:35.323Z,8.50
2023-04-17T08:29:35.287Z,8.60
2023-04-17T08:30:35.330Z,8.40
2023-04-17T08:31:35.288Z,9.40
2023-04-17T08:32:35.277Z,10.70
2023-04-17T08:33:35.250Z,8.70
2023-04-17T08:34:35.281Z,9.20
2023-04-17T08:35:35.262Z,8.60
2023-04-17T08:36:35.211Z,9.10
2023-04-17T08:37:35.217Z,8.80
2023-04-17T08:38:35.210Z,8.10
2023-04-17T08:39:35.187Z,8.80
2023-04-17T08:40:35.783Z,8.30
2023-04-17T08:41:35.151Z,8.20
2023-04-17T08:42:35.157Z,8.40
2023-04-17T08:43:35.125Z,7.70
2023-04-17T08:44:35.142Z,8.20
2023-04-17T08:45:35.097Z,8.80
2023-04-17T08:46:43.064Z,8.60
2023-04-17T08:47:35.146Z,9.00
2023-04-17T08:48:35.074Z,8.60
2023-04-17T08:49:35.073Z,8.50
2023-04-17T08:50:35.088Z,8.00
2023-04-17T08:51:35.048Z,8.10
2023-04-17T08:52:35.040Z,8.30
2023-04-17T08:53:35.026Z,8.10
2023-04-17T08:54:35.029Z,8.00
2023-04-17T08:55:34.992Z,8.00
2023-04-17T08:56:35.005Z,8.30
2023-04-17T08:57:34.984Z,8.20
2023-04-17T08:58:34.976Z,7.80
2023-04-17T08:59:34.962Z,8.00
2023-04-17T09:00:34.939Z,7.90
2023-04-17T09:01:35.052Z,8.50
2023-04-17T09:02:35.247Z,8.10
2023-04-17T09:03:35.174Z,7.90
2023-04-17T09:04:35.231Z,8.10
2023-04-17T09:05:34.901Z,8.50
2023-04-17T09:06:34.959Z,9.00
2023-04-17T09:07:34.995Z,8.80
2023-04-17T09:08:34.862Z,8.70
2023-04-17T09:09:34.879Z,8.50
2023-04-17T09:10:34.831Z,9.10
2023-04-17T09:11:34.820Z,8.80
2023-04-17T09:12:34.847Z,8.10
2023-04-17T09:13:34.797Z,7.70
2023-04-17T09:14:34.780Z,7.40
2023-04-17T09:15:35.004Z,7.60
2023-04-17T09:16:34.837Z,8.20
2023-04-17T09:17:35.009Z,8.00
2023-04-17T09:18:34.749Z,7.90
2023-04-17T09:19:35.295Z,7.60
2023-04-17T09:20:34.727Z,7.90
2023-04-17T09:21:34.713Z,7.50
2023-04-17T09:22:34.726Z,7.20
2023-04-17T09:23:34.741Z,7.80
2023-04-17T09:24:34.715Z,6.70
2023-04-17T09:25:38.119Z,8.10
2023-04-17T09:26:34.657Z,7.50
2023-04-17T09:27:34.650Z,7.20
2023-04-17T09:28:34.627Z,7.10
2023-04-17T09:29:34.650Z,7.60
2023-04-17T09:30:34.632Z,7.00
2023-04-17T09:31:34.857Z,7.10
2023-04-17T09:32:34.635Z,7.10
2023-04-17T09:33:34.599Z,7.40
2023-04-17T09:34:34.573Z,6.30
2023-04-17T09:35:37.065Z,7.20
2023-04-17T09:36:34.560Z,7.80
2023-04-17T09:37:34.571Z,6.80
2023-04-17T09:38:34.552Z,6.00
2023-04-17T09:39:34.518Z,7.00
2023-04-17T09:40:34.507Z,7.40
2023-04-17T09:41:35.497Z,6.30
2023-04-17T09:42:34.480Z,6.30
2023-04-17T09:43:34.554Z,6.70
2023-04-17T09:44:34.522Z,6.70
2023-04-17T09:45:34.470Z,6.80
2023-04-17T09:46:34.594Z,6.70
2023-04-17T09:47:34.467Z,6.80
2023-04-17T09:48:34.435Z,6.40
2023-04-17T09:49:34.432Z,6.70
2023-04-17T09:50:35.395Z,6.90
2023-04-17T09:51:34.383Z,6.90
2023-04-17T09:52:34.361Z,6.80
2023-04-17T09:53:34.362Z,7.10
2023-04-17T09:54:34.379Z,6.90
2023-04-17T09:55:34.332Z,6.60
2023-04-17T09:56:34.349Z,6.60
2023-04-17T09:57:34.322Z,6.40
2023-04-17T09:58:34.312Z,6.60
2023-04-17T09:59:34.283Z,6.10
2023-04-17T10:00:34.287Z,6.00
2023-04-17T10:01:34.296Z,5.80
2023-04-17T10:02:34.415Z,5.90
2023-04-17T10:03:37.200Z,5.60
2023-04-17T10:04:34.248Z,6.00
2023-04-17T10:05:34.223Z,5.90
2023-04-17T10:06:34.222Z,5.90
2023-04-17T10:07:34.237Z,5.80
2023-04-17T10:08:34.185Z,6.10
2023-04-17T10:09:34.175Z,6.50
2023-04-17T10:10:34.392Z,6.30
2023-04-17T10:11:34.201Z,6.30
2023-04-17T10:12:35.023Z,6.30
2023-04-17T10:13:34.149Z,6.90
2023-04-17T10:14:34.159Z,5.50
2023-04-17T10:15:34.232Z,5.90
2023-04-17T10:16:34.148Z,6.40
2023-04-17T10:17:34.225Z,6.60
2023-04-17T10:18:34.064Z,7.70
2023-04-17T10:19:34.096Z,8.00
2023-04-17T10:20:34.046Z,7.40
2023-04-17T10:21:34.031Z,8.40
2023-04-17T10:22:34.024Z,7.10
2023-04-17T10:23:34.023Z,7.50
2023-04-17T10:24:34.022Z,6.80
2023-04-17T10:25:33.994Z,6.80
2023-04-17T10:26:33.997Z,7.20
2023-04-17T10:27:34.020Z,7.10
2023-04-17T10:28:34.112Z,6.70
2023-04-17T10:29:33.996Z,6.20
2023-04-17T10:30:33.949Z,6.80
2023-04-17T10:31:33.996Z,6.70
2023-04-17T10:32:33.979Z,6.80
2023-04-17T10:33:34.025Z,6.60
2023-04-17T10:34:33.888Z,6.60
2023-04-17T10:35:33.918Z,6.90
2023-04-17T10:36:33.878Z,6.70
2023-04-17T10:37:33.879Z,6.90
2023-04-17T10:38:33.878Z,7.30
2023-04-17T10:39:33.845Z,6.70
2023-04-17T10:40:33.848Z,6.50
2023-04-17T10:41:33.851Z,6.90
2023-04-17T10:42:33.829Z,6.50
2023-04-17T10:43:33.827Z,6.80
2023-04-17T10:44:33.806Z,6.70
2023-04-17T10:45:33.939Z,6.40
2023-04-17T10:46:33.786Z,6.80
2023-04-17T10:47:42.094Z,6.20
2023-04-17T10:48:33.770Z,5.80
2023-04-17T10:49:33.727Z,6.30
2023-04-17T10:50:33.746Z,5.20
2023-04-17T10:51:33.711Z,6.30
2023-04-17T10:52:33.690Z,5.20
2023-04-17T10:53:33.697Z,5.80
2023-04-17T10:54:33.717Z,5.30
2023-04-17T10:55:33.657Z,5.60
2023-04-17T10:56:33.658Z,6.10
2023-04-17T10:57:33.634Z,5.70
2023-04-17T10:58:33.653Z,5.90
2023-04-17T10:59:33.661Z,5.20
2023-04-17T11:00:33.606Z,5.80
2023-04-17T11:01:33.632Z,5.80
2023-04-17T11:02:33.630Z,6.50
2023-04-17T11:03:33.629Z,5.60
2023-04-17T11:04:33.688Z,6.20
2023-04-17T11:05:33.552Z,6.40
2023-04-17T11:06:33.539Z,6.10
2023-04-17T11:07:33.541Z,6.10
2023-04-17T11:08:33.523Z,6.00
2023-04-17T11:09:33.505Z,6.30
2023-04-17T11:10:33.569Z,6.80
2023-04-17T11:11:43.445Z,6.60
2023-04-17T11:12:33.477Z,7.00
2023-04-17T11:13:33.485Z,6.40
2023-04-17T11:14:33.488Z,6.20
2023-04-17T11:15:33.438Z,6.40
2023-04-17T11:16:33.447Z,6.60
2023-04-17T11:17:33.476Z,6.10
2023-04-17T11:18:33.400Z,6.20
2023-04-17T11:19:33.404Z,6.10
2023-04-17T11:20:33.391Z,6.70
2023-04-17T11:21:33.369Z,6.40
2023-04-17T11:22:33.350Z,5.50
2023-04-17T11:23:33.360Z,6.30
2023-04-17T11:24:33.377Z,6.30
2023-04-17T11:25:33.341Z,5.80
2023-04-17T11:26:33.362Z,6.10
2023-04-17T11:27:33.302Z,5.80
2023-04-17T11:28:33.296Z,6.40
2023-04-17T11:29:33.282Z,6.00
2023-04-17T11:30:33.303Z,6.50
2023-04-17T11:31:33.310Z,6.90
2023-04-17T11:32:33.273Z,6.00
2023-04-17T11:33:33.251Z,6.90
2023-04-17T11:34:33.225Z,6.90
2023-04-17T11:35:33.220Z,5.60
2023-04-17T11:36:33.200Z,6.00
2023-04-17T11:37:33.197Z,6.90
2023-04-17T11:38:33.172Z,6.80
2023-04-17T11:39:33.176Z,6.70
2023-04-17T11:40:33.169Z,6.10
2023-04-17T11:41:33.159Z,6.70
2023-04-17T11:42:33.131Z,6.40
2023-04-17T11:43:33.124Z,6.50
2023-04-17T11:44:33.108Z,6.20
2023-04-17T11:45:33.116Z,6.30
2023-04-17T11:46:33.153Z,6.60
2023-04-17T11:47:33.143Z,6.70
2023-04-17T11:48:33.077Z,6.30
2023-04-17T11:49:33.060Z,6.50
2023-04-17T11:50:33.068Z,6.10
2023-04-17T11:51:33.053Z,6.30
2023-04-17T11:52:33.031Z,6.20
2023-04-17T11:53:33.012Z,6.20
2023-04-17T11:54:33.010Z,5.40
2023-04-17T11:55:32.994Z,6.50
2023-04-17T11:56:32.990Z,6.20
2023-04-17T11:57:32.967Z,6.10
2023-04-17T11:58:32.953Z,6.30
2023-04-17T11:59:32.985Z,6.20
2023-04-17T12:00:32.941Z,6.20
2023-04-17T12:01:32.942Z,6.10
2023-04-17T12:02:33.132Z,6.40
2023-04-17T12:03:33.117Z,6.10
2023-04-17T12:04:33.052Z,6.00
2023-04-17T12:05:32.897Z,5.60
2023-04-17T12:06:32.865Z,5.90
2023-04-17T12:07:32.873Z,5.70
2023-04-17T12:08:32.934Z,6.20
2023-04-17T12:09:32.837Z,6.20
2023-04-17T12:10:32.829Z,6.10
2023-04-17T12:11:32.883Z,5.60
2023-04-17T12:12:32.815Z,5.90
2023-04-17T12:13:32.799Z,6.20
2023-04-17T12:14:32.792Z,6.20
2023-04-17T12:15:32.982Z,6.20
2023-04-17T12:16:32.951Z,6.20
2023-04-17T12:17:32.805Z,6.10
2023-04-17T12:18:33.068Z,5.80
2023-04-17T12:19:32.734Z,5.80
2023-04-17T12:20:32.710Z,6.30
2023-04-17T12:21:32.703Z,6.00
2023-04-17T12:22:32.712Z,6.40
2023-04-17T12:23:32.712Z,6.40
2023-04-17T12:24:32.681Z,6.50
2023-04-17T12:25:32.656Z,6.10
2023-04-17T12:26:32.647Z,6.30
2023-04-17T12:27:32.647Z,6.30
2023-04-17T12:28:32.655Z,5.70
2023-04-17T12:29:43.920Z,5.60
2023-04-17T12:30:32.599Z,5.70
2023-04-17T12:31:32.616Z,5.30
2023-04-17T12:32:32.640Z,6.10
2023-04-17T12:33:32.565Z,5.90
2023-04-17T12:34:32.586Z,5.60
2023-04-17T12:35:32.559Z,5.30
2023-04-17T12:36:32.540Z,6.00
2023-04-17T12:37:32.530Z,5.50
2023-04-17T12:38:32.516Z,6.30
2023-04-17T12:39:32.523Z,5.90
2023-04-17T12:40:32.588Z,6.00
2023-04-17T12:41:32.476Z,6.10
2023-04-17T12:42:39.444Z,6.00
2023-04-17T12:43:32.473Z,6.20
2023-04-17T12:44:32.454Z,6.10
2023-04-17T12:45:32.445Z,6.10
2023-04-17T12:46:32.418Z,7.00
2023-04-17T12:47:32.462Z,6.40
2023-04-17T12:48:39.902Z,5.60
2023-04-17T12:49:32.404Z,5.90
2023-04-17T12:50:32.441Z,6.10
2023-04-17T12:51:32.510Z,6.50
2023-04-17T12:52:32.356Z,6.20
2023-04-17T12:53:32.346Z,6.70
2023-04-17T12:54:32.345Z,6.30
2023-04-17T12:55:32.325Z,6.70
2023-04-17T12:56:32.364Z,5.90
2023-04-17T12:57:32.308Z,5.80
2023-04-17T12:58:32.290Z,6.50
2023-04-17T12:59:32.279Z,6.00
2023-04-17T13:00:32.294Z,6.40
2023-04-17T13:01:32.315Z,6.40
2023-04-17T13:02:32.359Z,6.80
2023-04-17T13:03:32.420Z,6.60